Time;durP1;ratioP1;P1;durP2;ratioP2;P2;SDS_P1;SDS_P2;PMS_P1;PMS_P2;Temp;Humidity;BMP_temperature;BMP_pressure;BME280_temperature;BME280_humidity;BME280_pressure;Samples;Min_cycle;Max_cycle;Signal;HPM_P1;HPM_P2
2022/11/08 00:01:30;;;;;;;1.67;1.17;;;13.10;86.30;;;;;;4990274;28;20527;-73
2022/11/08 00:03:10;;;;;;;1.27;0.80;;;13.10;86.40;;;;;;4987882;28;20923;-73
2022/11/08 00:13:59;;;;;;;0.97;0.80;;;13.10;86.40;;;;;;4985586;28;20468;-73
2022/11/08 00:16:28;;;;;;;1.10;0.77;;;13.10;86.30;;;;;;5003277;28;20438;-73
2022/11/08 00:18:58;;;;;;;1.53;0.93;;;13.10;85.80;;;;;;4980960;28;20951;-73
2022/11/08 00:21:27;;;;;;;3.27;1.33;;;13.10;85.90;;;;;;4986043;28;20449;-73
2022/11/08 00:23:55;;;;;;;2.10;1.00;;;13.10;86.30;;;;;;4986171;28;20437;-73
2022/11/08 00:26:25;;;;;;;4.70;1.60;;;13.10;86.40;;;;;;5006560;28;20433;-73
2022/11/08 00:28:54;;;;;;;1.17;0.80;;;13.10;86.20;;;;;;5003557;28;20568;-73
2022/11/08 00:31:22;;;;;;;1.47;0.97;;;13.10;86.30;;;;;;4997326;28;20495;-73
2022/11/08 00:33:51;;;;;;;1.17;0.83;;;13.10;86.00;;;;;;5002121;28;20461;-73
2022/11/08 00:36:20;;;;;;;1.00;0.73;;;13.10;86.20;;;;;;4989511;28;20792;-73
2022/11/08 00:38:49;;;;;;;1.47;1.37;;;13.10;85.80;;;;;;4982008;28;20528;-73
2022/11/08 00:41:17;;;;;;;1.03;0.93;;;13.10;85.50;;;;;;4988024;28;20447;-73
2022/11/08 00:43:45;;;;;;;1.00;0.90;;;13.10;85.30;;;;;;4983749;28;20472;-73
2022/11/08 00:46:14;;;;;;;2.37;0.80;;;13.10;85.50;;;;;;5000829;28;20453;-73
2022/11/08 00:48:42;;;;;;;2.13;1.10;;;13.20;85.70;;;;;;4986880;28;20460;-73
2022/11/08 00:51:12;;;;;;;2.03;1.00;;;13.10;86.00;;;;;;4987929;28;20940;-73
2022/11/08 00:53:42;;;;;;;1.93;0.83;;;13.20;85.70;;;;;;4981976;28;20547;-73
2022/11/08 00:56:12;;;;;;;1.47;0.80;;;13.20;86.20;;;;;;4988652;28;21025;-73
2022/11/08 00:58:42;;;;;;;2.20;1.00;;;13.20;85.80;;;;;;4985840;28;20438;-73
2022/11/08 01:01:13;;;;;;;1.13;0.93;;;13.20;85.90;;;;;;4986400;28;20453;-73
2022/11/08 01:03:41;;;;;;;2.20;0.93;;;13.10;85.50;;;;;;4989578;28;20987;-73
2022/11/08 01:06:11;;;;;;;1.00;0.90;;;13.20;85.70;;;;;;4987400;28;20453;-73
2022/11/08 01:08:40;;;;;;;0.80;0.70;;;13.10;85.90;;;;;;4990245;28;20500;-73
2022/11/08 01:11:13;;;;;;;1.50;1.10;;;13.10;85.90;;;;;;4983993;28;20512;-73
2022/11/08 01:13:41;;;;;;;1.47;0.77;;;13.10;86.40;;;;;;4982252;28;20483;-73
2022/11/08 01:16:12;;;;;;;2.80;1.10;;;13.20;86.50;;;;;;4979913;28;20452;-73
2022/11/08 01:18:41;;;;;;;2.90;0.90;;;13.10;86.40;;;;;;5008150;28;20857;-73
2022/11/08 01:21:10;;;;;;;1.00;0.90;;;13.20;86.50;;;;;;5000394;28;20473;-73
2022/11/08 01:23:39;;;;;;;2.20;1.10;;;13.10;86.30;;;;;;4988557;28;20441;-73
2022/11/08 01:26:12;;;;;;;1.40;0.90;;;13.10;86.30;;;;;;4982994;28;20441;-73
2022/11/08 01:28:41;;;;;;;3.10;1.10;;;13.10;86.40;;;;;;4989356;28;21112;-73
2022/11/08 01:31:12;;;;;;;2.60;1.33;;;13.10;86.30;;;;;;4991915;28;20447;-73
2022/11/08 01:33:41;;;;;;;1.30;1.10;;;13.10;86.40;;;;;;4975359;28;20443;-73
2022/11/08 01:36:20;;;;;;;1.33;1.23;;;13.10;86.40;;;;;;4987035;28;20464;-73
2022/11/08 01:38:49;;;;;;;1.77;1.33;;;13.10;86.30;;;;;;4987570;28;20587;-73
2022/11/08 01:41:20;;;;;;;2.50;1.30;;;13.10;86.40;;;;;;4988385;28;20459;-73
2022/11/08 01:43:50;;;;;;;1.10;1.00;;;13.10;86.40;;;;;;4981637;28;20649;-73
2022/11/08 01:46:45;;;;;;;2.33;1.20;;;13.10;86.40;;;;;;4986539;28;20461;-73
2022/11/08 01:49:43;;;;;;;1.63;1.53;;;13.10;86.30;;;;;;4988308;28;20473;-73
2022/11/08 01:52:24;;;;;;;1.27;1.10;;;13.10;86.30;;;;;;4979768;28;20453;-73
2022/11/08 01:55:09;;;;;;;5.10;1.27;;;13.10;86.40;;;;;;4987520;28;20496;-73
2022/11/08 01:57:46;;;;;;;1.50;0.73;;;13.10;86.40;;;;;;4978176;28;20961;-73
2022/11/08 02:00:16;;;;;;;5.00;1.33;;;13.10;86.40;;;;;;4982446;28;20489;-73
2022/11/08 02:02:49;;;;;;;4.00;1.00;;;13.10;86.40;;;;;;5005718;28;20441;-73
2022/11/08 02:05:25;;;;;;;1.33;1.17;;;13.10;86.40;;;;;;4989290;28;20471;-73
2022/11/08 02:07:58;;;;;;;3.77;1.00;;;13.10;86.40;;;;;;4998500;28;20445;-73
2022/11/08 02:10:33;;;;;;;3.83;1.10;;;13.10;86.50;;;;;;4980259;28;20487;-73
2022/11/08 02:13:03;;;;;;;2.00;0.90;;;13.00;86.30;;;;;;4986374;28;20451;-73
2022/11/08 02:15:34;;;;;;;1.67;1.27;;;13.10;86.80;;;;;;5002660;28;20916;-73
2022/11/08 02:18:02;;;;;;;2.33;1.20;;;13.00;86.90;;;;;;4987183;28;20449;-73
2022/11/08 02:20:32;;;;;;;2.53;1.40;;;13.00;86.70;;;;;;5007584;28;20485;-73
2022/11/08 02:23:09;;;;;;;2.80;1.40;;;13.00;86.80;;;;;;4990682;28;20437;-73
2022/11/08 02:25:39;;;;;;;3.67;1.60;;;13.00;86.90;;;;;;4977395;28;20472;-73
2022/11/08 02:28:07;;;;;;;1.67;1.37;;;13.00;87.10;;;;;;4983453;28;20529;-73
2022/11/08 02:30:37;;;;;;;5.10;1.37;;;13.00;86.50;;;;;;4987088;28;20468;-73
2022/11/08 02:33:15;;;;;;;1.20;1.10;;;13.00;87.20;;;;;;4987017;28;20539;-73
2022/11/08 02:35:46;;;;;;;3.33;1.20;;;13.00;87.30;;;;;;4982892;28;21010;-73
2022/11/08 02:38:14;;;;;;;2.40;1.40;;;13.00;86.90;;;;;;4989649;28;20540;-73
2022/11/08 02:40:49;;;;;;;1.70;1.20;;;13.00;87.20;;;;;;4983091;28;20737;-73
2022/11/08 02:43:18;;;;;;;1.60;1.20;;;13.00;87.30;;;;;;4989804;28;20432;-73
2022/11/08 02:45:47;;;;;;;1.40;1.10;;;13.00;87.10;;;;;;5047758;23;21281;-69
2022/11/08 02:48:16;;;;;;;1.73;1.03;;;13.00;86.80;;;;;;5025392;28;20584;-67
2022/11/08 02:50:45;;;;;;;2.20;1.27;;;13.00;86.90;;;;;;5025019;28;20552;-69
2022/11/08 02:53:14;;;;;;;2.70;1.50;;;13.00;86.70;;;;;;4996136;28;20893;-68
2022/11/08 02:55:43;;;;;;;4.80;1.50;;;12.90;86.50;;;;;;5002626;28;20444;-69
2022/11/08 02:58:13;;;;;;;2.17;1.20;;;13.00;86.80;;;;;;5013971;28;20528;-68
2022/11/08 03:00:42;;;;;;;2.40;1.20;;;12.90;86.90;;;;;;4990992;28;20460;-68
2022/11/08 03:03:10;;;;;;;1.60;1.40;;;12.90;86.90;;;;;;5007860;28;20785;-69
2022/11/08 03:05:39;;;;;;;2.43;1.70;;;12.90;86.80;;;;;;4994973;28;20526;-68
2022/11/08 03:08:07;;;;;;;4.60;1.10;;;13.00;86.80;;;;;;4999880;28;20468;-69
2022/11/08 03:10:35;;;;;;;2.80;1.10;;;12.90;86.20;;;;;;5010295;28;20477;-69
2022/11/08 03:13:05;;;;;;;2.30;1.57;;;13.00;86.50;;;;;;4988192;28;20462;-68
2022/11/08 03:15:35;;;;;;;3.43;1.27;;;13.00;86.30;;;;;;5010258;28;21032;-68
2022/11/08 03:18:03;;;;;;;3.17;1.57;;;13.00;86.30;;;;;;4997650;28;20432;-70
2022/11/08 03:20:32;;;;;;;3.90;1.10;;;12.90;86.20;;;;;;4995097;28;20482;-70
2022/11/08 03:23:02;;;;;;;1.30;1.00;;;13.00;86.30;;;;;;5003851;28;20806;-69
2022/11/08 03:25:31;;;;;;;1.37;1.27;;;13.00;86.30;;;;;;4998546;28;20512;-69
2022/11/08 03:28:02;;;;;;;3.50;1.10;;;13.00;86.30;;;;;;5001943;28;20532;-68
2022/11/08 03:30:31;;;;;;;5.33;1.53;;;13.00;86.30;;;;;;4987831;28;20564;-68
2022/11/08 03:33:01;;;;;;;4.00;1.53;;;12.90;86.30;;;;;;4989505;28;20840;-70
2022/11/08 03:35:30;;;;;;;2.23;1.90;;;12.90;86.20;;;;;;5001332;28;20556;-68
2022/11/08 03:37:58;;;;;;;2.00;1.10;;;12.90;86.20;;;;;;5016668;28;20459;-70
2022/11/08 03:40:27;;;;;;;1.57;1.13;;;12.90;86.30;;;;;;4992293;28;20473;-70
2022/11/08 03:42:57;;;;;;;1.70;1.40;;;12.90;86.60;;;;;;4988235;28;20440;-68
2022/11/08 03:45:25;;;;;;;1.93;1.40;;;12.90;86.80;;;;;;4985177;28;20888;-69
2022/11/08 03:47:54;;;;;;;2.40;1.23;;;12.90;86.60;;;;;;4992267;28;20457;-69
2022/11/08 03:50:23;;;;;;;2.33;1.20;;;12.90;86.30;;;;;;4974698;28;21003;-69
2022/11/08 03:52:54;;;;;;;2.30;1.53;;;12.90;86.20;;;;;;4998602;28;20449;-69
2022/11/08 03:55:24;;;;;;;2.07;1.60;;;12.90;86.70;;;;;;4987752;28;20558;-69
2022/11/08 03:57:53;;;;;;;2.40;1.10;;;12.90;86.30;;;;;;4985825;28;20429;-69
2022/11/08 04:00:24;;;;;;;1.27;1.17;;;12.90;86.20;;;;;;5032091;28;20503;-69
2022/11/08 04:02:54;;;;;;;4.70;1.20;;;12.90;86.20;;;;;;4988217;28;20499;-68
2022/11/08 04:05:24;;;;;;;3.90;1.83;;;12.90;86.20;;;;;;5000033;28;20468;-68
2022/11/08 04:07:53;;;;;;;1.53;1.43;;;12.90;86.20;;;;;;4976019;28;20487;-69
2022/11/08 04:10:21;;;;;;;1.53;1.17;;;12.90;86.20;;;;;;4990881;28;20477;-69
2022/11/08 04:15:35;;;;;;;2.50;1.00;;;12.90;86.20;;;;;;4997141;28;20469;-68
2022/11/08 04:23:37;;;;;;;2.40;1.50;;;12.90;86.20;;;;;;5004062;28;20935;-69
2022/11/08 04:26:10;;;;;;;1.63;1.40;;;12.90;86.20;;;;;;4993581;28;21023;-70
2022/11/08 04:28:40;;;;;;;2.23;1.30;;;12.90;86.20;;;;;;4990651;28;20969;-69
2022/11/08 04:31:12;;;;;;;2.70;1.40;;;12.90;86.80;;;;;;4994569;28;21006;-69
2022/11/08 04:33:41;;;;;;;3.27;2.03;;;12.90;86.20;;;;;;4993424;28;20451;-69
2022/11/08 04:36:13;;;;;;;2.10;1.40;;;12.80;86.10;;;;;;4994530;28;20436;-69
2022/11/08 04:38:41;;;;;;;5.50;2.10;;;12.90;86.20;;;;;;4993341;28;20515;-68
2022/11/08 04:41:12;;;;;;;2.40;1.50;;;12.80;86.10;;;;;;4995562;28;20437;-69
2022/11/08 04:43:40;;;;;;;1.60;1.50;;;12.80;86.30;;;;;;5020726;28;20479;-68
2022/11/08 04:46:11;;;;;;;2.33;1.53;;;12.80;86.30;;;;;;4993243;28;20460;-68
2022/11/08 04:48:39;;;;;;;1.20;1.10;;;12.80;86.20;;;;;;4989334;28;20930;-69
2022/11/08 04:51:11;;;;;;;1.80;1.33;;;12.80;86.40;;;;;;4992188;28;20469;-71
2022/11/08 04:53:40;;;;;;;2.37;1.53;;;12.80;86.20;;;;;;5001732;28;20469;-68
2022/11/08 04:56:11;;;;;;;1.53;1.23;;;12.80;86.30;;;;;;4997218;28;20448;-68
2022/11/08 04:58:42;;;;;;;1.70;1.53;;;12.80;86.20;;;;;;4990974;28;20461;-70
2022/11/08 05:01:12;;;;;;;1.87;0.90;;;12.80;86.20;;;;;;4993155;28;20471;-68
2022/11/08 05:03:41;;;;;;;1.93;1.77;;;12.80;86.10;;;;;;5008548;28;20448;-69
2022/11/08 05:06:13;;;;;;;1.77;1.40;;;12.80;86.10;;;;;;4994472;28;20435;-67
2022/11/08 05:08:42;;;;;;;3.27;1.40;;;12.80;86.10;;;;;;4999653;28;20469;-68
2022/11/08 05:11:12;;;;;;;1.50;1.13;;;12.80;86.10;;;;;;4998386;28;20455;-67
2022/11/08 05:13:40;;;;;;;3.43;1.30;;;12.80;86.10;;;;;;4989436;28;20476;-69
2022/11/08 05:16:12;;;;;;;6.20;1.20;;;12.80;86.10;;;;;;4994369;28;20552;-70
2022/11/08 05:18:41;;;;;;;3.90;1.57;;;12.80;86.10;;;;;;4991033;28;21015;-69
2022/11/08 05:24:06;;;;;;;5.10;1.47;;;12.80;86.10;;;;;;4934610;28;20481;-69
2022/11/08 05:26:36;;;;;;;1.83;1.40;;;12.80;86.10;;;;;;5010051;28;20441;-68
2022/11/08 05:29:05;;;;;;;2.33;1.53;;;12.80;86.20;;;;;;5002127;28;20464;-69
2022/11/08 05:31:33;;;;;;;2.50;1.23;;;12.80;86.10;;;;;;4989293;28;20500;-68
2022/11/08 05:34:01;;;;;;;2.10;1.53;;;12.80;86.10;;;;;;4990160;28;20476;-68
2022/11/08 05:36:31;;;;;;;2.10;1.37;;;12.80;86.30;;;;;;4992515;28;20995;-69
2022/11/08 05:39:00;;;;;;;2.17;1.20;;;12.80;86.20;;;;;;4994015;28;20488;-68
2022/11/08 05:41:28;;;;;;;2.43;1.40;;;12.80;86.20;;;;;;4993803;28;20948;-68
2022/11/08 05:43:56;;;;;;;2.37;1.50;;;12.80;86.10;;;;;;4995753;28;20470;-69
2022/11/08 05:46:25;;;;;;;2.70;1.53;;;12.80;86.10;;;;;;5002689;28;20525;-67
2022/11/08 05:48:53;;;;;;;2.30;1.40;;;12.70;86.00;;;;;;4989415;28;20497;-68
2022/11/08 05:51:22;;;;;;;4.00;1.73;;;12.70;85.90;;;;;;4989758;28;20508;-69
2022/11/08 05:53:51;;;;;;;1.90;1.80;;;12.70;86.00;;;;;;4996666;28;21062;-69
2022/11/08 05:56:20;;;;;;;1.93;1.30;;;12.70;85.90;;;;;;4996802;28;20504;-69
2022/11/08 05:58:48;;;;;;;1.20;1.10;;;12.70;85.90;;;;;;5013565;28;20461;-68
2022/11/08 06:01:18;;;;;;;1.70;1.60;;;12.70;86.00;;;;;;4991683;28;20524;-69
2022/11/08 06:03:47;;;;;;;3.40;1.73;;;12.70;86.00;;;;;;4994544;28;20475;-69
2022/11/08 06:06:18;;;;;;;5.33;1.50;;;12.70;85.90;;;;;;5012720;28;20449;-69
2022/11/08 06:08:47;;;;;;;4.10;2.00;;;12.70;86.00;;;;;;5001441;28;20488;-68
2022/11/08 06:11:21;;;;;;;5.17;1.63;;;12.70;86.00;;;;;;5004195;28;20917;-69
2022/11/08 06:13:50;;;;;;;2.20;1.40;;;12.70;85.90;;;;;;4995662;28;20444;-69
2022/11/08 06:16:20;;;;;;;2.17;1.97;;;12.70;85.90;;;;;;4991813;28;20446;-68
2022/11/08 06:18:49;;;;;;;3.30;1.90;;;12.70;85.90;;;;;;4988375;28;20541;-69
2022/11/08 06:21:19;;;;;;;1.87;1.60;;;12.70;85.90;;;;;;5023403;28;20451;-70
2022/11/08 06:23:51;;;;;;;2.73;1.77;;;12.70;85.90;;;;;;5000066;28;20448;-70
2022/11/08 06:26:21;;;;;;;1.23;1.03;;;12.70;86.00;;;;;;4994422;28;20437;-68
2022/11/08 06:28:49;;;;;;;2.10;1.90;;;12.70;85.90;;;;;;4996937;28;20472;-68
2022/11/08 06:31:18;;;;;;;2.13;1.93;;;12.70;85.90;;;;;;5013851;28;20723;-68
2022/11/08 06:33:47;;;;;;;5.50;1.93;;;12.60;85.80;;;;;;5012720;28;20459;-67
2022/11/08 06:36:15;;;;;;;1.73;1.50;;;12.60;85.80;;;;;;4989310;28;20443;-68
2022/11/08 06:38:44;;;;;;;3.10;1.80;;;12.70;85.70;;;;;;5000364;28;20496;-68
2022/11/08 06:41:19;;;;;;;1.70;1.33;;;12.70;85.70;;;;;;5012135;28;20437;-68
2022/11/08 06:43:49;;;;;;;2.63;1.43;;;12.70;85.40;;;;;;5021395;28;20948;-68
2022/11/08 06:46:17;;;;;;;2.27;1.70;;;12.70;85.30;;;;;;4991663;28;20449;-68
2022/11/08 06:48:46;;;;;;;2.93;1.70;;;12.70;85.20;;;;;;5000772;28;20998;-68
2022/11/08 06:51:15;;;;;;;2.30;1.77;;;12.70;85.20;;;;;;4992649;28;20463;-68
2022/11/08 06:53:43;;;;;;;2.00;1.30;;;12.70;85.00;;;;;;4993378;28;20476;-68
2022/11/08 06:56:12;;;;;;;2.63;1.33;;;12.60;85.00;;;;;;5006714;28;20528;-69
2022/11/08 06:58:41;;;;;;;2.17;1.77;;;12.70;85.00;;;;;;4987538;28;20453;-67
2022/11/08 07:01:12;;;;;;;2.23;1.83;;;12.70;84.80;;;;;;5013810;28;20479;-69
2022/11/08 07:03:41;;;;;;;1.50;1.40;;;12.70;84.80;;;;;;4998104;28;20860;-72
2022/11/08 07:06:09;;;;;;;3.77;2.20;;;12.70;84.80;;;;;;5001611;28;20436;-74
2022/11/08 07:08:38;;;;;;;1.77;1.67;;;12.70;84.70;;;;;;4999375;28;20521;-73
2022/11/08 07:11:07;;;;;;;3.47;1.67;;;12.70;84.70;;;;;;5017389;28;20460;-72
2022/11/08 07:13:36;;;;;;;1.80;1.10;;;12.70;84.60;;;;;;4995233;28;20471;-73
2022/11/08 07:16:05;;;;;;;1.60;1.50;;;12.70;84.70;;;;;;4998524;28;20545;-73
2022/11/08 07:18:36;;;;;;;2.80;1.40;;;12.70;84.60;;;;;;5008197;28;20488;-68
2022/11/08 07:21:05;;;;;;;2.90;1.33;;;12.70;84.70;;;;;;5009507;28;20566;-67
2022/11/08 07:23:34;;;;;;;1.87;1.70;;;12.70;84.70;;;;;;5008133;28;21002;-68
2022/11/08 07:26:07;;;;;;;1.87;1.60;;;12.70;84.70;;;;;;5010330;28;20984;-68
2022/11/08 07:28:36;;;;;;;1.90;1.47;;;12.60;84.60;;;;;;5000205;28;20472;-68
2022/11/08 07:31:06;;;;;;;1.40;1.30;;;12.60;84.60;;;;;;4991148;28;20999;-69
2022/11/08 07:33:36;;;;;;;1.50;1.37;;;12.70;84.60;;;;;;5001129;28;20429;-67
2022/11/08 07:36:04;;;;;;;4.63;1.40;;;12.70;84.70;;;;;;4994145;28;20441;-69
2022/11/08 07:38:33;;;;;;;3.47;2.00;;;12.70;84.70;;;;;;4991062;28;20544;-69
2022/11/08 07:41:02;;;;;;;1.77;1.40;;;12.70;84.60;;;;;;4998120;28;20439;-67
2022/11/08 07:43:31;;;;;;;2.83;1.77;;;12.70;84.60;;;;;;5017637;28;20649;-69
2022/11/08 07:46:09;;;;;;;3.50;1.50;;;12.70;84.50;;;;;;4989274;28;20986;-67
2022/11/08 07:48:39;;;;;;;1.90;1.70;;;12.70;84.40;;;;;;5000274;28;20481;-67
2022/11/08 07:51:07;;;;;;;1.93;1.50;;;12.70;84.50;;;;;;4996160;28;20445;-67
2022/11/08 07:53:36;;;;;;;1.73;1.40;;;12.70;84.40;;;;;;5000760;28;20520;-69
2022/11/08 07:56:04;;;;;;;6.30;1.40;;;12.70;84.30;;;;;;4991820;28;20471;-68
2022/11/08 07:58:33;;;;;;;1.77;1.43;;;12.70;84.20;;;;;;5009645;28;20812;-68
2022/11/08 08:01:03;;;;;;;1.67;1.50;;;12.70;84.20;;;;;;4987136;28;20532;-69
2022/11/08 08:03:31;;;;;;;2.47;1.00;;;12.70;84.20;;;;;;5008812;28;20881;-69
2022/11/08 08:06:01;;;;;;;1.53;1.40;;;12.70;84.20;;;;;;4990998;28;20425;-68
2022/11/08 08:08:30;;;;;;;2.23;1.53;;;12.70;84.20;;;;;;4995966;28;20444;-69
2022/11/08 08:11:00;;;;;;;1.17;1.07;;;12.70;83.80;;;;;;4999680;28;20441;-68
2022/11/08 08:13:29;;;;;;;2.00;1.27;;;12.70;83.80;;;;;;4990861;28;20440;-69
2022/11/08 08:15:59;;;;;;;1.50;1.20;;;12.80;84.00;;;;;;4993639;28;20503;-68
2022/11/08 08:18:28;;;;;;;1.10;1.00;;;12.70;83.80;;;;;;5002388;28;20980;-68
2022/11/08 08:20:57;;;;;;;2.57;1.63;;;12.80;83.90;;;;;;4994321;28;20548;-68
2022/11/08 08:23:27;;;;;;;2.63;1.27;;;12.80;83.70;;;;;;5010549;28;20923;-68
2022/11/08 08:25:55;;;;;;;1.90;1.70;;;12.80;83.70;;;;;;5010223;28;20441;-69
2022/11/08 08:28:24;;;;;;;2.90;1.30;;;12.70;83.60;;;;;;4996355;28;20467;-67
2022/11/08 08:30:52;;;;;;;2.57;1.30;;;12.80;83.60;;;;;;5007022;28;20920;-69
2022/11/08 08:33:21;;;;;;;2.10;1.10;;;12.80;83.40;;;;;;4998421;28;20468;-70
2022/11/08 08:35:55;;;;;;;2.00;1.37;;;12.80;83.40;;;;;;4990339;28;20448;-67
2022/11/08 08:38:24;;;;;;;2.50;1.97;;;12.80;83.10;;;;;;5004634;28;20507;-68
2022/11/08 08:40:54;;;;;;;2.23;1.60;;;12.80;83.10;;;;;;4991934;28;20497;-68
2022/11/08 08:43:22;;;;;;;3.47;1.17;;;12.80;83.00;;;;;;5011467;28;20811;-68
2022/11/08 08:45:51;;;;;;;2.00;1.33;;;12.80;82.90;;;;;;5010155;28;20442;-67
2022/11/08 08:48:19;;;;;;;1.87;1.50;;;12.80;82.80;;;;;;5057832;22;20483;-68
2022/11/08 08:50:48;;;;;;;1.53;1.30;;;12.80;82.70;;;;;;5022231;28;20516;-70
2022/11/08 08:53:16;;;;;;;1.20;1.10;;;12.80;82.50;;;;;;5026574;28;20473;-69
2022/11/08 08:55:46;;;;;;;1.50;1.27;;;12.80;82.40;;;;;;5023180;28;20495;-70
2022/11/08 08:58:16;;;;;;;1.40;0.90;;;12.80;82.40;;;;;;4990803;28;20479;-70
2022/11/08 09:00:44;;;;;;;1.07;1.00;;;12.80;82.20;;;;;;4988348;28;20991;-70
2022/11/08 09:03:35;;;;;;;1.33;1.23;;;12.80;82.10;;;;;;5011278;28;20442;-70
2022/11/08 09:06:03;;;;;;;2.07;1.00;;;12.80;82.10;;;;;;4995493;28;20429;-70
2022/11/08 09:08:32;;;;;;;2.17;1.37;;;12.80;81.80;;;;;;5029671;28;20463;-69
2022/11/08 09:11:01;;;;;;;2.77;1.47;;;12.80;81.90;;;;;;4993485;28;20436;-69
2022/11/08 09:13:31;;;;;;;2.80;1.20;;;12.80;82.00;;;;;;5009711;28;20579;-69
2022/11/08 09:16:02;;;;;;;1.83;1.10;;;12.80;81.80;;;;;;4990041;28;20455;-70
2022/11/08 09:18:34;;;;;;;1.63;0.97;;;12.80;81.70;;;;;;5012577;28;20970;-70
2022/11/08 09:21:04;;;;;;;1.13;1.03;;;12.80;81.80;;;;;;4991360;28;20959;-69
2022/11/08 09:23:33;;;;;;;2.47;1.73;;;12.80;81.50;;;;;;5014525;28;20996;-69
2022/11/08 09:26:03;;;;;;;2.03;1.80;;;12.80;80.60;;;;;;4999456;28;20757;-69
2022/11/08 09:28:34;;;;;;;2.40;2.20;;;12.90;79.60;;;;;;5015878;28;20445;-70
2022/11/08 09:31:05;;;;;;;4.10;1.57;;;12.90;79.20;;;;;;4992775;28;20448;-69
2022/11/08 09:33:34;;;;;;;2.37;1.50;;;12.90;79.60;;;;;;5012961;28;20548;-69
2022/11/08 09:36:04;;;;;;;2.30;1.23;;;12.90;79.40;;;;;;5010455;28;20495;-70
2022/11/08 09:38:33;;;;;;;1.80;1.20;;;12.90;79.60;;;;;;5014167;28;20437;-70
2022/11/08 09:41:18;;;;;;;2.07;1.40;;;12.90;79.50;;;;;;4995326;28;20440;-70
2022/11/08 09:44:05;;;;;;;2.27;1.70;;;12.90;79.60;;;;;;5017983;28;20883;-70
2022/11/08 09:46:40;;;;;;;2.73;1.70;;;12.90;79.80;;;;;;5014531;28;20540;-68
2022/11/08 09:49:17;;;;;;;4.63;1.73;;;12.90;79.80;;;;;;4996195;28;20479;-69
2022/11/08 09:51:46;;;;;;;2.77;2.13;;;12.90;79.90;;;;;;5004318;28;20490;-69
2022/11/08 09:54:20;;;;;;;2.40;2.03;;;12.90;79.90;;;;;;5009176;28;20444;-69
2022/11/08 09:56:54;;;;;;;3.07;1.60;;;12.90;80.00;;;;;;4990631;28;20429;-70
2022/11/08 09:59:34;;;;;;;2.27;1.40;;;12.90;80.00;;;;;;5006695;28;20917;-69
2022/11/08 10:02:08;;;;;;;3.87;1.67;;;12.90;80.00;;;;;;4991617;28;20448;-71
2022/11/08 10:04:37;;;;;;;2.00;1.80;;;12.90;80.10;;;;;;4990365;28;20450;-68
2022/11/08 10:07:19;;;;;;;5.23;1.67;;;12.90;80.00;;;;;;4994180;28;20221;-69
2022/11/08 10:10:13;;;;;;;2.10;1.33;;;12.90;79.90;;;;;;5007478;28;21042;-69
2022/11/08 10:12:49;;;;;;;2.57;1.73;;;12.90;79.90;;;;;;4996682;28;20475;-70
2022/11/08 10:15:30;;;;;;;1.73;1.57;;;12.90;79.90;;;;;;4992882;28;20467;-69
2022/11/08 10:18:24;;;;;;;2.60;1.50;;;12.90;79.90;;;;;;4991691;28;20944;-69
2022/11/08 10:21:02;;;;;;;2.17;1.97;;;12.90;80.00;;;;;;5006757;28;20553;-70
2022/11/08 10:23:43;;;;;;;1.77;1.30;;;12.90;81.20;;;;;;4990015;28;20448;-69
2022/11/08 10:26:16;;;;;;;1.53;1.00;;;12.90;80.10;;;;;;5003246;28;20437;-69
2022/11/08 10:28:55;;;;;;;2.00;1.40;;;12.90;80.10;;;;;;5006153;28;20659;-69
2022/11/08 10:31:31;;;;;;;3.80;1.77;;;12.90;80.00;;;;;;4987808;28;20479;-70
2022/11/08 10:34:03;;;;;;;1.83;1.47;;;12.90;80.00;;;;;;4991131;28;20930;-70
2022/11/08 10:36:38;;;;;;;2.30;1.77;;;12.90;80.10;;;;;;5023180;28;20785;-69
2022/11/08 10:39:13;;;;;;;1.73;1.40;;;12.90;80.10;;;;;;4995900;28;20472;-70
2022/11/08 10:41:47;;;;;;;2.30;1.43;;;12.90;80.10;;;;;;5003723;28;20437;-70
2022/11/08 10:44:19;;;;;;;2.20;1.57;;;12.90;80.00;;;;;;5004828;28;20476;-70
2022/11/08 10:46:57;;;;;;;1.70;1.17;;;12.90;80.00;;;;;;4997525;28;20966;-70
2022/11/08 10:49:28;;;;;;;2.03;1.63;;;12.90;80.10;;;;;;5000241;28;20467;-70
2022/11/08 10:51:58;;;;;;;1.77;1.13;;;12.90;80.00;;;;;;4993892;28;20452;-70
2022/11/08 10:54:44;;;;;;;3.57;1.30;;;12.90;80.00;;;;;;5016056;28;20477;-69
2022/11/08 10:57:16;;;;;;;1.73;1.63;;;12.90;80.00;;;;;;5001770;28;20881;-70
2022/11/08 10:59:45;;;;;;;1.90;1.47;;;12.90;80.00;;;;;;5002054;28;20489;-70
2022/11/08 11:02:26;;;;;;;1.00;1.00;;;12.90;79.90;;;;;;4995430;28;20445;-68
2022/11/08 11:05:22;;;;;;;2.00;1.13;;;12.90;80.00;;;;;;4996606;28;20496;-69
2022/11/08 11:08:01;;;;;;;2.47;1.17;;;12.90;79.90;;;;;;5029157;28;20456;-73
2022/11/08 11:10:32;;;;;;;1.33;1.20;;;12.90;79.80;;;;;;5010075;28;20551;-73
2022/11/08 11:13:12;;;;;;;2.00;1.20;;;12.90;79.90;;;;;;5010249;28;20511;-73
2022/11/08 11:15:49;;;;;;;1.57;1.03;;;13.00;80.00;;;;;;5006583;28;20472;-70
2022/11/08 11:18:26;;;;;;;2.10;1.67;;;12.90;79.90;;;;;;4996754;28;20432;-70
2022/11/08 11:25:24;;;;;;;2.27;1.90;;;12.90;80.00;;;;;;5006416;28;20960;-69
2022/11/08 11:27:56;;;;;;;1.70;1.20;;;12.90;80.00;;;;;;5016428;28;20444;-73
2022/11/08 11:30:29;;;;;;;1.60;1.43;;;13.00;80.00;;;;;;5011774;28;20487;-73
2022/11/08 11:33:04;;;;;;;5.73;1.37;;;12.90;79.90;;;;;;4992104;28;20460;-73
2022/11/08 11:35:57;;;;;;;1.27;1.17;;;12.90;79.80;;;;;;5009435;28;20464;-73
2022/11/08 11:38:39;;;;;;;1.53;1.23;;;13.00;80.00;;;;;;4992403;28;20452;-73
2022/11/08 11:41:13;;;;;;;1.10;0.90;;;13.00;80.00;;;;;;5014399;28;20476;-73
2022/11/08 11:43:47;;;;;;;1.80;1.43;;;12.90;79.90;;;;;;5001975;28;20555;-73
2022/11/08 11:46:23;;;;;;;1.40;1.20;;;13.00;80.00;;;;;;5015677;28;20847;-73
2022/11/08 11:48:59;;;;;;;2.03;1.40;;;13.00;80.00;;;;;;4995008;28;20460;-73
2022/11/08 11:51:31;;;;;;;1.70;1.53;;;13.00;80.00;;;;;;4992916;28;20868;-73
2022/11/08 11:54:05;;;;;;;1.90;1.40;;;13.00;80.00;;;;;;5021283;28;20464;-73
2022/11/08 11:56:43;;;;;;;1.73;1.33;;;13.00;80.00;;;;;;4995331;28;20495;-73
2022/11/08 11:59:36;;;;;;;2.57;1.30;;;13.00;80.00;;;;;;5005284;28;20564;-69
2022/11/08 12:02:46;;;;;;;1.80;1.40;;;13.00;80.00;;;;;;5011908;28;20455;-73
2022/11/08 12:06:21;;;;;;;1.27;1.00;;;13.00;80.00;;;;;;5004955;28;20464;-73
2022/11/08 12:09:26;;;;;;;1.80;1.20;;;13.00;80.00;;;;;;5004133;28;20478;-73
2022/11/08 12:12:11;;;;;;;1.60;1.10;;;13.00;80.10;;;;;;5004040;28;20800;-73
2022/11/08 12:14:52;;;;;;;2.03;1.43;;;13.00;80.20;;;;;;5023070;28;20563;-69
2022/11/08 12:17:37;;;;;;;1.53;1.37;;;13.00;80.10;;;;;;5022668;28;20510;-70
2022/11/08 12:20:29;;;;;;;1.73;1.50;;;13.00;80.10;;;;;;4990891;28;20487;-73
2022/11/08 12:23:18;;;;;;;2.07;1.07;;;13.00;80.20;;;;;;5006001;28;20970;-73
2022/11/08 12:25:55;;;;;;;1.53;1.30;;;13.00;80.20;;;;;;4984726;28;20465;-73
2022/11/08 12:28:42;;;;;;;2.03;1.60;;;13.00;80.20;;;;;;4990798;28;20443;-73
2022/11/08 12:31:21;;;;;;;2.20;1.20;;;13.00;80.30;;;;;;4992385;28;20931;-73
2022/11/08 12:34:01;;;;;;;3.27;1.67;;;13.00;80.30;;;;;;4990735;28;20484;-73
2022/11/08 12:36:38;;;;;;;1.80;1.40;;;13.00;80.30;;;;;;4998254;28;21085;-73
2022/11/08 12:39:16;;;;;;;2.53;1.30;;;13.00;80.30;;;;;;4993540;28;20472;-73
2022/11/08 12:42:03;;;;;;;1.97;1.30;;;13.00;80.40;;;;;;5008627;28;20437;-73
2022/11/08 12:44:58;;;;;;;1.23;1.07;;;13.00;80.40;;;;;;5008347;28;20482;-73
2022/11/08 12:47:34;;;;;;;2.10;1.20;;;13.00;80.30;;;;;;4950633;28;20525;-73
2022/11/08 12:50:17;;;;;;;1.77;1.40;;;13.00;80.40;;;;;;4991660;28;20527;-73
2022/11/08 12:53:14;;;;;;;1.50;1.20;;;13.00;80.40;;;;;;4992824;28;20874;-73
2022/11/08 12:55:46;;;;;;;1.40;1.10;;;13.00;80.40;;;;;;4977137;28;20453;-73
2022/11/08 12:58:28;;;;;;;1.57;1.00;;;13.00;80.50;;;;;;4995438;28;20433;-73
2022/11/08 13:01:05;;;;;;;1.50;1.10;;;13.00;80.30;;;;;;4989839;28;20896;-73
2022/11/08 13:04:11;;;;;;;4.17;1.57;;;13.00;80.50;;;;;;4990119;28;20843;-73
2022/11/08 13:06:45;;;;;;;1.90;1.03;;;13.00;80.40;;;;;;4988389;28;20480;-73
2022/11/08 13:09:23;;;;;;;1.13;1.00;;;13.00;80.40;;;;;;4985505;28;20887;-73
2022/11/08 13:12:04;;;;;;;1.30;1.10;;;13.00;80.40;;;;;;5008929;28;20433;-73
2022/11/08 13:14:35;;;;;;;1.83;1.00;;;13.00;80.50;;;;;;4991024;28;20700;-73
2022/11/08 13:17:18;;;;;;;1.10;1.00;;;13.00;80.40;;;;;;5011994;28;20436;-69
2022/11/08 13:19:56;;;;;;;1.80;1.10;;;13.00;80.50;;;;;;5001107;28;20567;-73
2022/11/08 13:22:57;;;;;;;2.03;1.17;;;13.00;80.50;;;;;;5010423;28;20514;-73
2022/11/08 13:25:36;;;;;;;1.63;1.23;;;13.00;80.50;;;;;;5017133;28;20539;-73
2022/11/08 13:28:44;;;;;;;1.63;1.20;;;13.10;80.60;;;;;;5009168;28;20828;-73
2022/11/08 13:31:39;;;;;;;1.23;1.13;;;13.10;80.60;;;;;;5007409;28;20498;-70
2022/11/08 13:34:20;;;;;;;1.90;1.53;;;13.00;80.50;;;;;;5003095;28;20511;-69
2022/11/08 13:37:24;;;;;;;1.10;0.90;;;13.00;80.50;;;;;;4995067;28;20453;-69
2022/11/08 13:40:25;;;;;;;0.90;0.80;;;13.10;80.50;;;;;;4958161;28;20479;-70
2022/11/08 13:43:20;;;;;;;1.23;0.97;;;13.00;80.50;;;;;;5001537;28;20445;-70